createdAt,value
2023-03-07T00:01:30.774Z,9.07
2023-03-07T00:03:58.882Z,8.50
2023-03-07T00:06:26.182Z,8.60
2023-03-07T00:08:55.662Z,8.43
2023-03-07T00:11:22.685Z,8.97
2023-03-07T00:13:49.803Z,8.13
2023-03-07T00:16:18.963Z,7.53
2023-03-07T00:18:46.291Z,7.63
2023-03-07T00:21:14.934Z,8.20
2023-03-07T00:23:43.346Z,8.20
2023-03-07T00:26:19.036Z,8.20
2023-03-07T00:28:47.540Z,6.73
2023-03-07T00:31:14.733Z,9.50
2023-03-07T00:33:41.886Z,7.40
2023-03-07T00:36:20.215Z,8.53
2023-03-07T00:38:47.129Z,7.83
2023-03-07T00:41:25.424Z,6.90
2023-03-07T00:43:53.258Z,6.90
2023-03-07T00:46:21.295Z,7.67
2023-03-07T00:48:48.712Z,6.60
2023-03-07T00:51:18.834Z,7.30
2023-03-07T00:53:46.155Z,7.23
2023-03-07T00:56:13.242Z,7.70
2023-03-07T00:58:40.432Z,6.57
2023-03-07T01:01:07.544Z,7.63
2023-03-07T01:03:35.276Z,6.27
2023-03-07T01:06:06.827Z,6.20
2023-03-07T01:08:34.543Z,6.93
2023-03-07T01:11:03.529Z,7.37
2023-03-07T01:13:31.303Z,6.73
2023-03-07T01:16:27.448Z,7.50
2023-03-07T01:18:59.819Z,6.67
2023-03-07T01:21:33.159Z,6.57
2023-03-07T01:24:03.009Z,6.90
2023-03-07T01:26:32.084Z,6.33
2023-03-07T01:29:01.680Z,6.10
2023-03-07T01:31:30.597Z,5.57
2023-03-07T01:33:58.150Z,5.43
2023-03-07T01:36:30.510Z,6.10
2023-03-07T01:39:14.733Z,6.23
2023-03-07T01:41:52.896Z,6.03
2023-03-07T01:44:27.691Z,4.63
2023-03-07T01:46:56.241Z,4.70
2023-03-07T01:49:27.414Z,5.93
2023-03-07T01:52:06.395Z,4.90
2023-03-07T01:54:40.518Z,5.07
2023-03-07T01:57:07.996Z,4.67
2023-03-07T01:59:40.307Z,3.97
2023-03-07T02:02:14.244Z,4.70
2023-03-07T02:05:06.510Z,4.43
2023-03-07T02:07:38.853Z,4.40
2023-03-07T02:10:06.743Z,5.00
2023-03-07T02:12:33.889Z,4.13
2023-03-07T02:15:01.426Z,4.47
2023-03-07T02:17:28.531Z,3.90
2023-03-07T02:20:26.416Z,4.67
2023-03-07T02:22:54.625Z,4.63
2023-03-07T02:26:02.936Z,4.37
2023-03-07T02:28:29.973Z,4.57
2023-03-07T02:31:03.589Z,4.20
2023-03-07T02:33:33.793Z,4.13
2023-03-07T02:36:12.887Z,3.83
2023-03-07T02:38:48.596Z,3.93
2023-03-07T02:41:18.745Z,4.67
2023-03-07T02:43:45.764Z,4.67
2023-03-07T02:46:13.141Z,5.10
2023-03-07T02:48:40.256Z,5.00
2023-03-07T02:51:07.583Z,4.23
2023-03-07T02:53:34.762Z,4.07
2023-03-07T02:56:01.919Z,3.60
2023-03-07T02:58:29.225Z,4.03
2023-03-07T03:00:56.303Z,4.87
2023-03-07T03:03:23.336Z,4.10
2023-03-07T03:05:50.414Z,4.63
2023-03-07T03:08:19.185Z,4.07
2023-03-07T03:10:46.320Z,4.07
2023-03-07T03:13:14.063Z,3.50
2023-03-07T03:15:42.552Z,4.20
2023-03-07T03:18:09.194Z,4.30
2023-03-07T03:20:36.249Z,4.37
2023-03-07T03:23:04.459Z,4.73
2023-03-07T03:25:31.368Z,5.23
2023-03-07T03:27:58.506Z,5.00
2023-03-07T03:30:28.189Z,4.97
2023-03-07T03:32:56.319Z,4.57
2023-03-07T03:35:23.084Z,4.50
2023-03-07T03:37:50.231Z,4.20
2023-03-07T03:40:17.681Z,4.33
2023-03-07T03:42:46.316Z,4.90
2023-03-07T03:45:15.094Z,5.33
2023-03-07T03:47:42.149Z,4.60
2023-03-07T03:50:10.232Z,5.40
2023-03-07T03:52:37.289Z,4.30
2023-03-07T03:55:04.671Z,5.10
2023-03-07T03:57:31.809Z,5.27
2023-03-07T03:59:58.883Z,4.80
2023-03-07T04:02:26.623Z,5.63
2023-03-07T04:04:53.863Z,4.47
2023-03-07T04:07:20.476Z,5.40
2023-03-07T04:09:47.544Z,4.63
2023-03-07T04:12:14.383Z,4.40
2023-03-07T04:14:41.455Z,5.80
2023-03-07T04:17:08.638Z,4.87
2023-03-07T04:19:35.725Z,4.57
2023-03-07T04:22:03.366Z,4.80
2023-03-07T04:24:30.965Z,4.50
2023-03-07T04:26:58.037Z,5.23
2023-03-07T04:29:25.240Z,4.67
2023-03-07T04:31:58.411Z,4.80
2023-03-07T04:34:25.548Z,3.90
2023-03-07T04:36:52.594Z,4.63
2023-03-07T04:39:19.713Z,4.00
2023-03-07T04:41:47.266Z,3.60
2023-03-07T04:44:17.812Z,4.20
2023-03-07T04:46:44.944Z,3.63
2023-03-07T04:49:12.168Z,3.80
2023-03-07T04:51:42.995Z,3.93
2023-03-07T04:54:11.229Z,3.83
2023-03-07T04:56:37.936Z,4.03
2023-03-07T04:59:05.090Z,3.60
2023-03-07T05:01:32.231Z,3.60
2023-03-07T05:04:00.257Z,3.77
2023-03-07T05:06:27.427Z,4.00
2023-03-07T05:08:54.479Z,3.50
2023-03-07T05:11:21.712Z,3.43
2023-03-07T05:13:49.922Z,3.30
2023-03-07T05:16:20.140Z,3.20
2023-03-07T05:18:48.164Z,3.97
2023-03-07T05:21:15.214Z,3.20
2023-03-07T05:23:42.497Z,3.20
2023-03-07T05:26:11.594Z,3.40
2023-03-07T05:28:38.806Z,3.10
2023-03-07T05:31:05.585Z,3.23
2023-03-07T05:33:33.075Z,3.00
2023-03-07T05:36:01.165Z,2.90
2023-03-07T05:38:29.317Z,2.53
2023-03-07T05:40:56.454Z,3.20
2023-03-07T05:43:23.502Z,3.80
2023-03-07T05:45:51.993Z,2.73
2023-03-07T05:48:19.368Z,3.80
2023-03-07T05:50:46.420Z,2.90
2023-03-07T05:53:13.383Z,2.67
2023-03-07T05:55:40.192Z,3.33
2023-03-07T05:58:07.224Z,3.17
2023-03-07T06:00:34.387Z,2.27
2023-03-07T06:03:04.714Z,2.03
2023-03-07T06:05:32.755Z,2.63
2023-03-07T06:08:00.237Z,2.83
2023-03-07T06:10:27.424Z,2.40
2023-03-07T06:12:54.789Z,2.10
2023-03-07T06:15:24.337Z,2.40
2023-03-07T06:17:55.361Z,2.70
2023-03-07T06:20:22.556Z,2.47
2023-03-07T06:22:50.142Z,2.80
2023-03-07T06:25:17.295Z,2.60
2023-03-07T06:27:44.485Z,2.57
2023-03-07T06:30:12.340Z,3.07
2023-03-07T06:32:39.621Z,2.27
2023-03-07T06:35:07.122Z,3.30
2023-03-07T06:37:34.461Z,2.70
2023-03-07T06:40:06.199Z,2.80
2023-03-07T06:42:35.495Z,2.53
2023-03-07T06:45:02.553Z,2.33
2023-03-07T06:47:29.726Z,2.70
2023-03-07T06:49:57.256Z,2.80
2023-03-07T06:52:24.256Z,2.70
2023-03-07T06:54:51.716Z,2.57
2023-03-07T06:57:18.809Z,3.10
2023-03-07T06:59:45.863Z,2.97
2023-03-07T07:02:14.898Z,2.60
2023-03-07T07:04:42.082Z,3.10
2023-03-07T07:07:09.189Z,2.87
2023-03-07T07:09:36.342Z,2.90
2023-03-07T07:12:05.042Z,2.57
2023-03-07T07:14:34.500Z,2.50
2023-03-07T07:17:01.833Z,3.03
2023-03-07T07:19:28.897Z,3.00
2023-03-07T07:21:57.528Z,4.20
2023-03-07T07:24:24.836Z,3.73
2023-03-07T07:26:54.049Z,2.87
2023-03-07T07:29:21.266Z,4.00
2023-03-07T07:31:49.811Z,8.00
2023-03-07T07:34:18.644Z,3.67
2023-03-07T07:36:46.375Z,3.80
2023-03-07T07:39:15.128Z,4.00
2023-03-07T07:41:44.469Z,4.80
2023-03-07T07:44:12.908Z,4.83
2023-03-07T07:46:52.613Z,4.53
2023-03-07T07:49:19.203Z,4.53
2023-03-07T07:51:46.799Z,4.77
2023-03-07T07:54:14.575Z,5.60
2023-03-07T07:56:41.303Z,5.53
2023-03-07T07:59:08.137Z,5.73
2023-03-07T08:01:35.262Z,5.80
2023-03-07T08:04:02.328Z,5.23
2023-03-07T08:06:29.621Z,7.43
2023-03-07T08:08:56.848Z,6.27
2023-03-07T08:11:23.986Z,5.80
2023-03-07T08:13:51.214Z,6.43
2023-03-07T08:16:20.436Z,5.30
2023-03-07T08:18:52.523Z,5.10
2023-03-07T08:21:19.829Z,5.23
2023-03-07T08:23:46.525Z,5.20
2023-03-07T08:26:13.619Z,4.60
2023-03-07T08:28:41.827Z,3.73
2023-03-07T08:31:17.202Z,3.80
2023-03-07T08:33:45.908Z,3.23
2023-03-07T08:36:13.013Z,3.07
2023-03-07T08:38:40.119Z,2.87
2023-03-07T08:41:08.287Z,3.20
2023-03-07T08:43:36.617Z,2.83
2023-03-07T08:46:03.969Z,2.87
2023-03-07T08:48:31.055Z,2.30
2023-03-07T08:50:58.221Z,2.40
2023-03-07T08:53:25.269Z,2.50
2023-03-07T08:55:52.305Z,2.00
2023-03-07T08:58:19.359Z,2.47
2023-03-07T09:00:46.370Z,2.23
2023-03-07T09:03:13.396Z,1.90
2023-03-07T09:05:40.444Z,2.37
2023-03-07T09:08:08.320Z,1.80
2023-03-07T09:10:36.364Z,1.63
2023-03-07T09:13:03.532Z,2.27
2023-03-07T09:15:30.556Z,3.13
2023-03-07T09:17:57.598Z,3.47
2023-03-07T09:20:24.798Z,3.83
2023-03-07T09:22:53.563Z,2.20
2023-03-07T09:25:20.640Z,2.13
2023-03-07T09:27:47.716Z,1.80
2023-03-07T09:30:15.253Z,1.97
2023-03-07T09:32:42.311Z,1.70
2023-03-07T09:35:10.244Z,2.20
2023-03-07T09:37:37.377Z,1.80
2023-03-07T09:40:07.548Z,2.10
2023-03-07T09:43:05.492Z,1.93
2023-03-07T09:45:37.156Z,1.80
2023-03-07T09:48:35.785Z,1.63
2023-03-07T09:51:44.253Z,2.00
2023-03-07T09:54:28.437Z,3.70
2023-03-07T09:56:59.680Z,1.33
2023-03-07T09:59:38.050Z,1.60
2023-03-07T10:02:23.499Z,1.53
2023-03-07T10:05:11.585Z,1.40
2023-03-07T10:07:38.288Z,1.10
2023-03-07T10:10:07.420Z,3.47
2023-03-07T10:13:04.500Z,1.30
2023-03-07T10:15:57.399Z,1.70
2023-03-07T10:18:53.250Z,6.73
2023-03-07T10:21:35.175Z,1.70
2023-03-07T10:24:02.168Z,1.60
2023-03-07T10:26:51.135Z,1.87
2023-03-07T10:29:22.213Z,1.30
2023-03-07T10:31:55.123Z,1.60
2023-03-07T10:34:31.338Z,1.17
2023-03-07T10:37:13.310Z,1.37
2023-03-07T10:39:50.097Z,1.30
2023-03-07T10:42:19.126Z,2.00
2023-03-07T10:44:49.004Z,2.20
2023-03-07T10:47:24.956Z,3.00
2023-03-07T10:49:56.305Z,2.30
2023-03-07T10:52:35.208Z,2.80
2023-03-07T10:55:29.436Z,2.47
2023-03-07T10:58:11.969Z,1.73
2023-03-07T11:00:38.634Z,1.90
2023-03-07T11:03:05.815Z,2.30
2023-03-07T11:05:34.342Z,2.27
2023-03-07T11:08:36.064Z,2.97
2023-03-07T11:11:04.821Z,3.23
2023-03-07T11:13:31.774Z,1.60
2023-03-07T11:16:19.038Z,2.20
2023-03-07T11:18:46.476Z,2.27
2023-03-07T11:21:33.110Z,2.93
2023-03-07T11:24:19.986Z,4.17
2023-03-07T11:26:46.628Z,4.77
2023-03-07T11:29:14.710Z,4.00
2023-03-07T11:32:06.425Z,2.93
2023-03-07T11:34:59.323Z,3.47
2023-03-07T11:37:39.021Z,3.20
2023-03-07T11:40:29.451Z,3.67
2023-03-07T11:43:01.639Z,3.50
2023-03-07T11:45:36.555Z,4.90
2023-03-07T11:48:36.093Z,3.33
2023-03-07T11:51:04.590Z,3.47
2023-03-07T11:53:42.890Z,3.43
2023-03-07T11:56:19.892Z,3.77
2023-03-07T11:58:46.914Z,3.20
2023-03-07T12:01:26.595Z,3.20
2023-03-07T12:04:20.812Z,2.70
2023-03-07T12:07:06.156Z,2.97
2023-03-07T12:09:48.760Z,3.33
2023-03-07T12:12:46.191Z,2.97
2023-03-07T12:15:37.665Z,2.27
2023-03-07T12:18:04.760Z,2.40
2023-03-07T12:20:31.788Z,3.27
2023-03-07T12:23:18.225Z,2.30
2023-03-07T12:25:57.190Z,2.73
2023-03-07T12:28:43.798Z,2.70
2023-03-07T12:31:30.898Z,2.70
2023-03-07T12:34:20.226Z,3.30
2023-03-07T12:36:53.338Z,3.50
2023-03-07T12:39:33.090Z,4.03
2023-03-07T12:42:37.812Z,3.00
2023-03-07T12:45:12.667Z,2.77
2023-03-07T12:47:39.932Z,2.73
2023-03-07T12:50:06.845Z,2.90
2023-03-07T12:53:01.268Z,2.90
2023-03-07T12:55:28.306Z,2.97
2023-03-07T12:58:25.386Z,2.70
2023-03-07T13:00:58.035Z,2.00
2023-03-07T13:03:56.438Z,3.53
2023-03-07T13:06:24.209Z,2.90
2023-03-07T13:08:55.288Z,2.23
2023-03-07T13:11:24.842Z,2.63
2023-03-07T13:13:57.076Z,2.33
2023-03-07T13:16:43.606Z,2.50
2023-03-07T13:19:35.695Z,2.57
2023-03-07T13:22:22.636Z,2.63
2023-03-07T13:24:53.931Z,3.00
2023-03-07T13:27:27.180Z,3.43
2023-03-07T13:30:11.722Z,4.43
2023-03-07T13:32:56.573Z,4.00
2023-03-07T13:35:32.068Z,3.67
2023-03-07T13:37:59.409Z,3.50
2023-03-07T13:40:28.882Z,3.80
2023-03-07T13:42:56.178Z,4.03
2023-03-07T13:45:37.741Z,4.23
2023-03-07T13:48:05.886Z,3.57
2023-03-07T13:50:35.300Z,3.50
2023-03-07T13:53:04.075Z,3.40
2023-03-07T13:55:41.142Z,5.90
2023-03-07T13:58:33.526Z,4.57
2023-03-07T14:01:14.664Z,3.83
2023-03-07T14:03:46.892Z,3.30
2023-03-07T14:06:33.932Z,4.10
2023-03-07T14:09:02.712Z,3.77
2023-03-07T14:11:47.864Z,2.60
2023-03-07T14:14:38.703Z,3.17
2023-03-07T14:17:05.786Z,3.93
2023-03-07T14:20:00.578Z,2.70
2023-03-07T14:22:48.925Z,2.70
2023-03-07T14:25:21.426Z,3.00
2023-03-07T14:27:50.693Z,3.53
2023-03-07T14:30:18.049Z,3.10
2023-03-07T14:32:45.056Z,2.30
2023-03-07T14:35:15.300Z,2.07
2023-03-07T14:37:43.893Z,2.50
2023-03-07T14:40:16.058Z,2.73
2023-03-07T14:43:09.647Z,3.30
2023-03-07T14:46:04.323Z,2.50
2023-03-07T14:48:44.451Z,2.10
2023-03-07T14:51:24.114Z,2.30
2023-03-07T14:53:50.728Z,2.27
2023-03-07T14:56:34.746Z,2.17
2023-03-07T14:59:02.900Z,1.97
2023-03-07T15:01:32.020Z,2.30
2023-03-07T15:03:59.375Z,2.23
2023-03-07T15:06:27.943Z,2.30
2023-03-07T15:08:59.107Z,2.63
2023-03-07T15:11:40.272Z,3.10
2023-03-07T15:14:25.845Z,3.17
2023-03-07T15:17:00.318Z,2.80
2023-03-07T15:19:38.432Z,3.90
2023-03-07T15:22:13.928Z,3.63
2023-03-07T15:24:44.969Z,4.57
2023-03-07T15:27:20.780Z,4.80
2023-03-07T15:29:48.452Z,4.03
2023-03-07T15:32:39.561Z,3.53
2023-03-07T15:35:06.575Z,4.20
2023-03-07T15:37:34.075Z,5.73
2023-03-07T15:40:09.615Z,5.17
2023-03-07T15:42:53.743Z,5.83
2023-03-07T15:45:30.988Z,5.10
2023-03-07T15:48:01.266Z,4.77
2023-03-07T15:50:29.638Z,5.50
2023-03-07T15:53:05.999Z,6.83
2023-03-07T15:55:33.184Z,6.13
2023-03-07T15:58:05.200Z,5.07
2023-03-07T16:00:38.201Z,6.47
2023-03-07T16:03:27.995Z,5.97
2023-03-07T16:05:56.157Z,5.20
2023-03-07T16:08:23.245Z,7.03
2023-03-07T16:10:59.291Z,5.60
2023-03-07T16:13:38.888Z,7.20
2023-03-07T16:16:22.253Z,7.53
2023-03-07T16:18:49.502Z,6.83
2023-03-07T16:21:17.214Z,6.57
2023-03-07T16:23:44.695Z,7.07
2023-03-07T16:26:16.154Z,7.07
2023-03-07T16:28:44.262Z,7.73
2023-03-07T16:31:13.106Z,7.40
2023-03-07T16:33:39.991Z,6.80
2023-03-07T16:36:07.223Z,8.10
2023-03-07T16:38:34.279Z,6.03
2023-03-07T16:41:03.566Z,5.70
2023-03-07T16:43:36.645Z,5.77
2023-03-07T16:46:09.921Z,3.37
2023-03-07T16:48:37.069Z,2.67
2023-03-07T16:51:04.435Z,2.50
2023-03-07T16:53:31.447Z,2.57
2023-03-07T16:55:58.916Z,2.70
2023-03-07T16:58:29.498Z,1.80
2023-03-07T17:00:58.884Z,2.50
2023-03-07T17:03:26.574Z,2.20
2023-03-07T17:05:53.663Z,1.43
2023-03-07T17:08:20.728Z,1.73
2023-03-07T17:10:47.852Z,2.40
2023-03-07T17:13:17.489Z,3.17
2023-03-07T17:15:45.589Z,2.53
2023-03-07T17:18:12.750Z,3.43
2023-03-07T17:20:41.424Z,3.20
2023-03-07T17:23:08.370Z,3.60
2023-03-07T17:25:35.478Z,2.20
2023-03-07T17:28:10.575Z,2.87
2023-03-07T17:30:37.154Z,3.70
2023-03-07T17:33:04.268Z,2.40
2023-03-07T17:35:31.413Z,3.43
2023-03-07T17:37:58.532Z,3.23
2023-03-07T17:40:25.603Z,3.20
2023-03-07T17:42:54.652Z,3.10
2023-03-07T17:45:21.872Z,2.70
2023-03-07T17:47:53.853Z,2.30
2023-03-07T17:50:23.760Z,2.80
2023-03-07T17:52:54.749Z,7.37
2023-03-07T17:55:24.731Z,2.60
2023-03-07T17:57:52.158Z,3.37
2023-03-07T18:00:20.972Z,1.97
2023-03-07T18:02:48.385Z,2.37
2023-03-07T18:05:15.156Z,2.60
2023-03-07T18:07:42.255Z,2.77
2023-03-07T18:10:10.146Z,2.10
2023-03-07T18:12:39.027Z,2.40
2023-03-07T18:15:13.014Z,2.03
2023-03-07T18:17:47.793Z,2.73
2023-03-07T18:20:15.363Z,2.57
2023-03-07T18:22:42.567Z,2.83
2023-03-07T18:25:11.953Z,2.13
2023-03-07T18:27:39.020Z,2.80
2023-03-07T18:30:06.283Z,2.80
2023-03-07T18:32:34.154Z,1.97
2023-03-07T18:35:01.432Z,2.33
2023-03-07T18:37:28.708Z,2.80
2023-03-07T18:39:55.534Z,2.90
2023-03-07T18:42:22.581Z,2.17
2023-03-07T18:44:49.684Z,2.00
2023-03-07T18:47:16.928Z,1.90
2023-03-07T18:49:43.994Z,1.90
2023-03-07T18:52:10.628Z,1.80
2023-03-07T18:54:37.688Z,2.10
2023-03-07T18:57:04.720Z,2.40
2023-03-07T18:59:32.011Z,2.20
2023-03-07T19:02:02.865Z,2.60
2023-03-07T19:04:30.222Z,2.80
2023-03-07T19:06:58.015Z,2.37
2023-03-07T19:09:26.109Z,2.60
2023-03-07T19:11:53.403Z,3.40
2023-03-07T19:14:20.555Z,3.30
2023-03-07T19:16:47.200Z,3.77
2023-03-07T19:19:14.300Z,4.37
2023-03-07T19:21:41.366Z,4.23
2023-03-07T19:24:11.270Z,4.43
2023-03-07T19:26:38.389Z,3.70
2023-03-07T19:29:05.488Z,4.13
2023-03-07T19:31:33.019Z,5.30
2023-03-07T19:34:02.890Z,4.73
2023-03-07T19:36:32.012Z,6.43
2023-03-07T19:38:59.454Z,5.63
2023-03-07T19:41:28.248Z,7.10
2023-03-07T19:43:59.103Z,6.80
2023-03-07T19:46:26.073Z,6.53
2023-03-07T19:48:53.135Z,5.03
2023-03-07T19:51:22.538Z,7.00
2023-03-07T19:53:50.046Z,5.63
2023-03-07T19:56:27.991Z,5.37
2023-03-07T19:58:55.445Z,5.13
2023-03-07T20:01:23.069Z,5.20
2023-03-07T20:03:50.793Z,5.13
2023-03-07T20:06:20.211Z,4.63
2023-03-07T20:08:52.050Z,5.33
2023-03-07T20:11:21.862Z,6.20
2023-03-07T20:13:49.014Z,4.83
2023-03-07T20:16:17.319Z,4.47
2023-03-07T20:18:44.419Z,4.10
2023-03-07T20:21:13.469Z,4.67
2023-03-07T20:23:40.625Z,4.57
2023-03-07T20:26:12.538Z,4.43
2023-03-07T20:28:39.594Z,4.97
2023-03-07T20:31:10.543Z,5.30
2023-03-07T20:33:38.826Z,4.90
2023-03-07T20:36:07.257Z,5.10
2023-03-07T20:38:35.301Z,6.73
2023-03-07T20:41:04.631Z,5.17
2023-03-07T20:43:32.526Z,5.17
2023-03-07T20:46:07.726Z,4.77
2023-03-07T20:48:35.288Z,4.73
2023-03-07T20:51:18.350Z,4.97
2023-03-07T20:53:46.343Z,3.17
2023-03-07T20:56:13.435Z,3.93
2023-03-07T20:58:40.051Z,3.40
2023-03-07T21:01:06.918Z,3.50
2023-03-07T21:03:33.920Z,3.77
2023-03-07T21:06:02.341Z,4.37
2023-03-07T21:08:31.034Z,3.83
2023-03-07T21:11:05.638Z,3.97
2023-03-07T21:13:34.940Z,4.03
2023-03-07T21:16:11.091Z,3.67
2023-03-07T21:18:38.205Z,4.10
2023-03-07T21:21:10.476Z,4.97
2023-03-07T21:23:37.416Z,4.03
2023-03-07T21:26:05.862Z,4.30
2023-03-07T21:28:34.185Z,3.77
2023-03-07T21:31:02.679Z,4.57
2023-03-07T21:33:30.264Z,4.13
2023-03-07T21:35:57.636Z,4.27
2023-03-07T21:38:24.914Z,3.83
2023-03-07T21:40:52.442Z,4.77
2023-03-07T21:43:19.461Z,4.70
2023-03-07T21:45:46.697Z,4.87
2023-03-07T21:48:13.770Z,4.70
2023-03-07T21:50:44.408Z,5.13
2023-03-07T21:53:11.941Z,6.63
2023-03-07T21:55:39.080Z,5.83
2023-03-07T21:58:06.310Z,5.17
2023-03-07T22:00:33.419Z,5.23
2023-03-07T22:02:59.997Z,6.20
2023-03-07T22:05:27.048Z,5.30
2023-03-07T22:07:53.679Z,5.80
2023-03-07T22:10:20.318Z,4.83
2023-03-07T22:12:49.072Z,4.23
2023-03-07T22:15:16.253Z,4.67
2023-03-07T22:17:43.285Z,6.07
2023-03-07T22:20:10.859Z,5.37
2023-03-07T22:22:37.705Z,4.70
2023-03-07T22:25:04.930Z,4.00
2023-03-07T22:27:32.163Z,4.17
2023-03-07T22:29:59.254Z,4.57
2023-03-07T22:32:26.494Z,4.70
2023-03-07T22:34:53.650Z,5.03
2023-03-07T22:37:20.760Z,4.57
2023-03-07T22:39:48.215Z,5.17
2023-03-07T22:42:15.255Z,5.20
2023-03-07T22:44:42.377Z,5.53
2023-03-07T22:47:09.621Z,5.43
2023-03-07T22:49:36.665Z,5.90
2023-03-07T22:52:03.689Z,5.77
2023-03-07T22:54:30.719Z,5.30
2023-03-07T22:56:57.792Z,6.13
2023-03-07T22:59:24.353Z,6.40
2023-03-07T23:01:52.134Z,6.67
2023-03-07T23:04:18.776Z,7.83
2023-03-07T23:06:45.897Z,7.23
2023-03-07T23:09:12.934Z,7.87
2023-03-07T23:11:40.426Z,8.27
2023-03-07T23:14:07.013Z,8.53
2023-03-07T23:16:36.175Z,9.73
2023-03-07T23:19:03.333Z,9.47
2023-03-07T23:21:32.176Z,10.03
2023-03-07T23:23:59.643Z,10.10
2023-03-07T23:26:29.625Z,9.27
2023-03-07T23:28:56.926Z,9.33
2023-03-07T23:31:26.834Z,9.53
2023-03-07T23:33:58.257Z,10.60
2023-03-07T23:36:26.690Z,11.30
2023-03-07T23:38:53.692Z,12.07
2023-03-07T23:41:21.466Z,11.00
2023-03-07T23:43:55.947Z,12.10
2023-03-07T23:46:23.565Z,12.10
2023-03-07T23:48:50.691Z,12.43
2023-03-07T23:51:17.751Z,12.27
2023-03-07T23:53:44.875Z,11.33
2023-03-07T23:56:12.599Z,12.17
2023-03-07T23:58:39.487Z,12.93
